sensor_id;sensor_type;location;lat;lon;timestamp;P1;durP1;ratioP1;P2;durP2;ratioP2
44572;SDS011;31762;45.420;10.072;2023-11-21T00:00:53;33.13;;;30.33;;
44572;SDS011;31762;45.420;10.072;2023-11-21T00:05:56;34.50;;;31.48;;
44572;SDS011;31762;45.420;10.072;2023-11-21T00:10:58;33.55;;;30.63;;
44572;SDS011;31762;45.420;10.072;2023-11-21T00:16:00;34.83;;;31.73;;
44572;SDS011;31762;45.420;10.072;2023-11-21T00:21:03;33.42;;;30.50;;
44572;SDS011;31762;45.420;10.072;2023-11-21T00:26:05;32.03;;;29.25;;
44572;SDS011;31762;45.420;10.072;2023-11-21T00:31:07;32.15;;;29.48;;
44572;SDS011;31762;45.420;10.072;2023-11-21T00:36:10;31.38;;;28.55;;
44572;SDS011;31762;45.420;10.072;2023-11-21T00:41:12;31.50;;;28.63;;
44572;SDS011;31762;45.420;10.072;2023-11-21T00:46:14;31.40;;;28.60;;
44572;SDS011;31762;45.420;10.072;2023-11-21T00:51:16;32.08;;;29.08;;
44572;SDS011;31762;45.420;10.072;2023-11-21T00:56:19;30.80;;;28.10;;
44572;SDS011;31762;45.420;10.072;2023-11-21T01:01:21;32.53;;;29.55;;
44572;SDS011;31762;45.420;10.072;2023-11-21T01:06:23;30.42;;;27.67;;
44572;SDS011;31762;45.420;10.072;2023-11-21T01:11:26;30.15;;;27.35;;
44572;SDS011;31762;45.420;10.072;2023-11-21T01:16:28;32.80;;;29.73;;
44572;SDS011;31762;45.420;10.072;2023-11-21T01:21:30;31.98;;;29.10;;
44572;SDS011;31762;45.420;10.072;2023-11-21T01:26:33;32.78;;;29.73;;
44572;SDS011;31762;45.420;10.072;2023-11-21T01:31:35;30.73;;;27.98;;
44572;SDS011;31762;45.420;10.072;2023-11-21T01:36:37;30.27;;;27.45;;
44572;SDS011;31762;45.420;10.072;2023-11-21T01:41:40;30.48;;;27.77;;
44572;SDS011;31762;45.420;10.072;2023-11-21T01:46:42;32.05;;;29.25;;
44572;SDS011;31762;45.420;10.072;2023-11-21T01:51:45;28.92;;;26.23;;
44572;SDS011;31762;45.420;10.072;2023-11-21T01:56:50;30.67;;;27.88;;
44572;SDS011;31762;45.420;10.072;2023-11-21T02:01:52;29.38;;;26.63;;
44572;SDS011;31762;45.420;10.072;2023-11-21T02:06:55;30.77;;;27.65;;
44572;SDS011;31762;45.420;10.072;2023-11-21T02:11:57;29.80;;;27.20;;
44572;SDS011;31762;45.420;10.072;2023-11-21T02:16:59;30.10;;;27.40;;
44572;SDS011;31762;45.420;10.072;2023-11-21T02:22:01;30.92;;;28.08;;
44572;SDS011;31762;45.420;10.072;2023-11-21T02:27:05;30.00;;;27.20;;
44572;SDS011;31762;45.420;10.072;2023-11-21T02:32:07;28.75;;;26.08;;
44572;SDS011;31762;45.420;10.072;2023-11-21T02:37:09;31.35;;;28.55;;
44572;SDS011;31762;45.420;10.072;2023-11-21T02:42:11;30.50;;;27.60;;
44572;SDS011;31762;45.420;10.072;2023-11-21T02:47:14;29.70;;;26.90;;
44572;SDS011;31762;45.420;10.072;2023-11-21T02:52:16;32.75;;;29.73;;
44572;SDS011;31762;45.420;10.072;2023-11-21T02:57:19;30.13;;;27.35;;
44572;SDS011;31762;45.420;10.072;2023-11-21T03:02:21;31.15;;;28.35;;
44572;SDS011;31762;45.420;10.072;2023-11-21T03:07:23;33.63;;;30.45;;
44572;SDS011;31762;45.420;10.072;2023-11-21T03:12:26;31.55;;;28.65;;
44572;SDS011;31762;45.420;10.072;2023-11-21T03:17:28;32.67;;;29.88;;
44572;SDS011;31762;45.420;10.072;2023-11-21T03:22:30;32.75;;;29.75;;
44572;SDS011;31762;45.420;10.072;2023-11-21T03:27:33;31.98;;;28.98;;
44572;SDS011;31762;45.420;10.072;2023-11-21T03:32:35;32.90;;;29.88;;
44572;SDS011;31762;45.420;10.072;2023-11-21T03:37:38;26.38;;;23.95;;
44572;SDS011;31762;45.420;10.072;2023-11-21T03:42:40;33.25;;;30.35;;
44572;SDS011;31762;45.420;10.072;2023-11-21T03:47:42;33.60;;;30.65;;
44572;SDS011;31762;45.420;10.072;2023-11-21T03:52:45;32.30;;;29.45;;
44572;SDS011;31762;45.420;10.072;2023-11-21T03:57:47;31.83;;;28.92;;
44572;SDS011;31762;45.420;10.072;2023-11-21T04:02:49;31.27;;;28.48;;
44572;SDS011;31762;45.420;10.072;2023-11-21T04:07:52;31.38;;;28.67;;
44572;SDS011;31762;45.420;10.072;2023-11-21T04:12:54;30.27;;;27.60;;
44572;SDS011;31762;45.420;10.072;2023-11-21T04:17:56;32.97;;;29.88;;
44572;SDS011;31762;45.420;10.072;2023-11-21T04:22:58;32.08;;;29.27;;
44572;SDS011;31762;45.420;10.072;2023-11-21T04:28:01;32.00;;;29.15;;
44572;SDS011;31762;45.420;10.072;2023-11-21T04:33:03;30.83;;;27.92;;
44572;SDS011;31762;45.420;10.072;2023-11-21T04:38:05;30.70;;;27.92;;
44572;SDS011;31762;45.420;10.072;2023-11-21T04:43:07;32.53;;;29.63;;
44572;SDS011;31762;45.420;10.072;2023-11-21T04:48:10;31.70;;;28.83;;
44572;SDS011;31762;45.420;10.072;2023-11-21T04:53:12;30.35;;;27.45;;
44572;SDS011;31762;45.420;10.072;2023-11-21T04:58:14;30.92;;;28.05;;
44572;SDS011;31762;45.420;10.072;2023-11-21T05:03:16;28.63;;;26.08;;
44572;SDS011;31762;45.420;10.072;2023-11-21T05:08:19;29.73;;;27.13;;
44572;SDS011;31762;45.420;10.072;2023-11-21T05:13:21;29.92;;;27.23;;
44572;SDS011;31762;45.420;10.072;2023-11-21T05:18:24;28.33;;;26.00;;
44572;SDS011;31762;45.420;10.072;2023-11-21T05:23:27;29.42;;;26.75;;
44572;SDS011;31762;45.420;10.072;2023-11-21T05:28:29;30.27;;;27.38;;
44572;SDS011;31762;45.420;10.072;2023-11-21T05:33:31;27.77;;;25.38;;
44572;SDS011;31762;45.420;10.072;2023-11-21T05:38:34;27.25;;;24.98;;
44572;SDS011;31762;45.420;10.072;2023-11-21T05:43:36;28.58;;;26.13;;
44572;SDS011;31762;45.420;10.072;2023-11-21T05:48:38;27.92;;;25.60;;
44572;SDS011;31762;45.420;10.072;2023-11-21T05:53:41;26.65;;;24.30;;
44572;SDS011;31762;45.420;10.072;2023-11-21T05:58:43;27.40;;;25.00;;
44572;SDS011;31762;45.420;10.072;2023-11-21T06:03:45;26.90;;;24.45;;
44572;SDS011;31762;45.420;10.072;2023-11-21T06:08:48;27.23;;;24.73;;
44572;SDS011;31762;45.420;10.072;2023-11-21T06:13:50;30.52;;;27.70;;
44572;SDS011;31762;45.420;10.072;2023-11-21T06:18:53;30.20;;;27.60;;
44572;SDS011;31762;45.420;10.072;2023-11-21T06:23:55;34.13;;;31.02;;
44572;SDS011;31762;45.420;10.072;2023-11-21T06:28:58;28.48;;;25.83;;
44572;SDS011;31762;45.420;10.072;2023-11-21T06:34:00;27.80;;;25.23;;
44572;SDS011;31762;45.420;10.072;2023-11-21T06:39:03;26.55;;;24.30;;
44572;SDS011;31762;45.420;10.072;2023-11-21T06:44:05;26.30;;;23.95;;
44572;SDS011;31762;45.420;10.072;2023-11-21T06:49:08;26.95;;;24.45;;
44572;SDS011;31762;45.420;10.072;2023-11-21T06:54:10;26.98;;;24.52;;
44572;SDS011;31762;45.420;10.072;2023-11-21T06:59:12;24.98;;;22.70;;
44572;SDS011;31762;45.420;10.072;2023-11-21T07:04:15;24.45;;;22.35;;
44572;SDS011;31762;45.420;10.072;2023-11-21T07:09:17;25.25;;;23.08;;
44572;SDS011;31762;45.420;10.072;2023-11-21T07:14:20;25.55;;;23.15;;
44572;SDS011;31762;45.420;10.072;2023-11-21T07:19:22;26.40;;;24.10;;
44572;SDS011;31762;45.420;10.072;2023-11-21T07:24:24;25.83;;;23.45;;
44572;SDS011;31762;45.420;10.072;2023-11-21T07:29:27;23.33;;;21.40;;
44572;SDS011;31762;45.420;10.072;2023-11-21T07:34:30;24.23;;;22.13;;
44572;SDS011;31762;45.420;10.072;2023-11-21T07:39:32;26.08;;;23.52;;
44572;SDS011;31762;45.420;10.072;2023-11-21T07:44:34;26.35;;;23.95;;
44572;SDS011;31762;45.420;10.072;2023-11-21T07:49:37;26.17;;;23.58;;
44572;SDS011;31762;45.420;10.072;2023-11-21T07:54:39;25.65;;;23.35;;
44572;SDS011;31762;45.420;10.072;2023-11-21T07:59:41;25.85;;;23.35;;
44572;SDS011;31762;45.420;10.072;2023-11-21T08:04:43;26.38;;;24.13;;
44572;SDS011;31762;45.420;10.072;2023-11-21T08:09:46;24.70;;;22.50;;
44572;SDS011;31762;45.420;10.072;2023-11-21T08:14:48;24.55;;;22.35;;
44572;SDS011;31762;45.420;10.072;2023-11-21T08:19:50;24.77;;;22.52;;
44572;SDS011;31762;45.420;10.072;2023-11-21T08:24:53;26.70;;;23.98;;
44572;SDS011;31762;45.420;10.072;2023-11-21T08:29:55;25.63;;;23.52;;
44572;SDS011;31762;45.420;10.072;2023-11-21T08:34:57;26.23;;;24.08;;
44572;SDS011;31762;45.420;10.072;2023-11-21T08:40:00;27.08;;;24.58;;
44572;SDS011;31762;45.420;10.072;2023-11-21T08:45:03;28.05;;;25.38;;
44572;SDS011;31762;45.420;10.072;2023-11-21T08:50:06;27.63;;;25.17;;
44572;SDS011;31762;45.420;10.072;2023-11-21T08:55:09;27.55;;;24.98;;
44572;SDS011;31762;45.420;10.072;2023-11-21T09:00:11;27.30;;;24.80;;
44572;SDS011;31762;45.420;10.072;2023-11-21T09:05:14;26.40;;;24.20;;
44572;SDS011;31762;45.420;10.072;2023-11-21T09:10:16;26.83;;;24.13;;
44572;SDS011;31762;45.420;10.072;2023-11-21T09:15:18;27.58;;;25.23;;
44572;SDS011;31762;45.420;10.072;2023-11-21T09:20:21;26.92;;;24.33;;
44572;SDS011;31762;45.420;10.072;2023-11-21T09:25:23;25.92;;;23.52;;
44572;SDS011;31762;45.420;10.072;2023-11-21T09:30:25;29.75;;;26.83;;
44572;SDS011;31762;45.420;10.072;2023-11-21T09:35:27;29.65;;;26.52;;
44572;SDS011;31762;45.420;10.072;2023-11-21T09:40:30;28.08;;;25.48;;
44572;SDS011;31762;45.420;10.072;2023-11-21T09:45:33;27.50;;;25.00;;
44572;SDS011;31762;45.420;10.072;2023-11-21T09:50:36;32.08;;;29.10;;
44572;SDS011;31762;45.420;10.072;2023-11-21T09:55:39;28.73;;;26.13;;
44572;SDS011;31762;45.420;10.072;2023-11-21T10:00:45;31.15;;;28.35;;
44572;SDS011;31762;45.420;10.072;2023-11-21T10:05:48;28.90;;;26.20;;
44572;SDS011;31762;45.420;10.072;2023-11-21T10:10:53;31.17;;;28.38;;
44572;SDS011;31762;45.420;10.072;2023-11-21T10:15:55;31.70;;;28.77;;
44572;SDS011;31762;45.420;10.072;2023-11-21T10:20:59;33.13;;;30.20;;
44572;SDS011;31762;45.420;10.072;2023-11-21T10:31:11;31.02;;;28.25;;
44572;SDS011;31762;45.420;10.072;2023-11-21T10:36:13;32.22;;;29.33;;
44572;SDS011;31762;45.420;10.072;2023-11-21T10:41:15;30.95;;;28.08;;
44572;SDS011;31762;45.420;10.072;2023-11-21T10:46:20;32.17;;;29.17;;
44572;SDS011;31762;45.420;10.072;2023-11-21T10:51:23;33.63;;;30.42;;
44572;SDS011;31762;45.420;10.072;2023-11-21T10:56:25;31.58;;;28.73;;
44572;SDS011;31762;45.420;10.072;2023-11-21T11:01:27;30.08;;;27.23;;
44572;SDS011;31762;45.420;10.072;2023-11-21T11:06:31;31.65;;;28.65;;
44572;SDS011;31762;45.420;10.072;2023-11-21T11:11:34;30.08;;;27.48;;
44572;SDS011;31762;45.420;10.072;2023-11-21T11:16:36;29.75;;;27.08;;
44572;SDS011;31762;45.420;10.072;2023-11-21T11:21:43;28.98;;;26.42;;
44572;SDS011;31762;45.420;10.072;2023-11-21T11:27:35;30.15;;;27.10;;
44572;SDS011;31762;45.420;10.072;2023-11-21T11:32:21;29.52;;;26.73;;
44572;SDS011;31762;45.420;10.072;2023-11-21T11:37:25;30.10;;;27.10;;
44572;SDS011;31762;45.420;10.072;2023-11-21T11:42:27;30.15;;;27.05;;
44572;SDS011;31762;45.420;10.072;2023-11-21T11:47:32;31.77;;;28.50;;
44572;SDS011;31762;45.420;10.072;2023-11-21T11:52:37;30.42;;;27.50;;
44572;SDS011;31762;45.420;10.072;2023-11-21T11:57:40;30.80;;;27.83;;
44572;SDS011;31762;45.420;10.072;2023-11-21T12:02:46;30.90;;;27.75;;
44572;SDS011;31762;45.420;10.072;2023-11-21T12:07:53;31.08;;;28.15;;
44572;SDS011;31762;45.420;10.072;2023-11-21T12:12:59;29.65;;;26.58;;
44572;SDS011;31762;45.420;10.072;2023-11-21T12:18:02;31.60;;;28.13;;
44572;SDS011;31762;45.420;10.072;2023-11-21T12:23:05;28.95;;;26.05;;
44572;SDS011;31762;45.420;10.072;2023-11-21T12:28:07;28.75;;;25.85;;
44572;SDS011;31762;45.420;10.072;2023-11-21T12:33:11;28.20;;;25.47;;
44572;SDS011;31762;45.420;10.072;2023-11-21T12:38:13;29.55;;;26.67;;
44572;SDS011;31762;45.420;10.072;2023-11-21T12:43:15;29.95;;;26.48;;
44572;SDS011;31762;45.420;10.072;2023-11-21T12:48:19;28.27;;;25.70;;
44572;SDS011;31762;45.420;10.072;2023-11-21T12:53:21;28.55;;;25.45;;
44572;SDS011;31762;45.420;10.072;2023-11-21T12:58:23;28.85;;;25.90;;
44572;SDS011;31762;45.420;10.072;2023-11-21T13:03:26;30.85;;;27.65;;
44572;SDS011;31762;45.420;10.072;2023-11-21T13:08:28;29.92;;;26.80;;
44572;SDS011;31762;45.420;10.072;2023-11-21T13:13:31;29.52;;;26.58;;
44572;SDS011;31762;45.420;10.072;2023-11-21T13:18:34;29.30;;;26.35;;
44572;SDS011;31762;45.420;10.072;2023-11-21T13:23:37;29.93;;;26.83;;
44572;SDS011;31762;45.420;10.072;2023-11-21T13:28:39;29.70;;;26.75;;
44572;SDS011;31762;45.420;10.072;2023-11-21T13:33:42;26.67;;;24.17;;
44572;SDS011;31762;45.420;10.072;2023-11-21T13:38:45;27.85;;;25.25;;
44572;SDS011;31762;45.420;10.072;2023-11-21T13:43:47;27.40;;;24.80;;
44572;SDS011;31762;45.420;10.072;2023-11-21T13:48:49;28.42;;;25.38;;
44572;SDS011;31762;45.420;10.072;2023-11-21T13:53:52;28.05;;;25.33;;
44572;SDS011;31762;45.420;10.072;2023-11-21T13:58:55;28.92;;;26.13;;
44572;SDS011;31762;45.420;10.072;2023-11-21T14:03:58;28.98;;;25.95;;
44572;SDS011;31762;45.420;10.072;2023-11-21T14:09:00;28.33;;;25.42;;
44572;SDS011;31762;45.420;10.072;2023-11-21T14:14:03;28.52;;;25.88;;
44572;SDS011;31762;45.420;10.072;2023-11-21T14:19:05;27.77;;;25.10;;
44572;SDS011;31762;45.420;10.072;2023-11-21T14:24:08;28.63;;;25.92;;
44572;SDS011;31762;45.420;10.072;2023-11-21T14:29:11;28.40;;;25.75;;
44572;SDS011;31762;45.420;10.072;2023-11-21T14:34:13;28.50;;;25.77;;
44572;SDS011;31762;45.420;10.072;2023-11-21T14:39:17;29.33;;;26.27;;
44572;SDS011;31762;45.420;10.072;2023-11-21T14:44:19;27.63;;;24.73;;
44572;SDS011;31762;45.420;10.072;2023-11-21T14:49:21;29.88;;;26.83;;
44572;SDS011;31762;45.420;10.072;2023-11-21T14:54:24;27.33;;;24.73;;
44572;SDS011;31762;45.420;10.072;2023-11-21T14:59:26;28.38;;;25.50;;
44572;SDS011;31762;45.420;10.072;2023-11-21T15:04:28;29.40;;;26.65;;
44572;SDS011;31762;45.420;10.072;2023-11-21T15:09:31;28.98;;;26.38;;
44572;SDS011;31762;45.420;10.072;2023-11-21T15:14:34;30.50;;;27.63;;
44572;SDS011;31762;45.420;10.072;2023-11-21T15:19:36;30.92;;;28.23;;
44572;SDS011;31762;45.420;10.072;2023-11-21T15:24:38;29.52;;;26.90;;
44572;SDS011;31762;45.420;10.072;2023-11-21T15:29:41;31.23;;;28.38;;
44572;SDS011;31762;45.420;10.072;2023-11-21T15:34:44;30.90;;;28.13;;
44572;SDS011;31762;45.420;10.072;2023-11-21T15:39:46;31.50;;;28.52;;
44572;SDS011;31762;45.420;10.072;2023-11-21T15:44:48;31.75;;;28.67;;
44572;SDS011;31762;45.420;10.072;2023-11-21T15:49:51;31.95;;;29.08;;
44572;SDS011;31762;45.420;10.072;2023-11-21T15:54:53;31.58;;;28.65;;
44572;SDS011;31762;45.420;10.072;2023-11-21T15:59:55;29.70;;;27.00;;
44572;SDS011;31762;45.420;10.072;2023-11-21T16:04:57;30.60;;;27.77;;
44572;SDS011;31762;45.420;10.072;2023-11-21T16:10:00;28.45;;;25.88;;
44572;SDS011;31762;45.420;10.072;2023-11-21T16:15:02;32.78;;;29.27;;
44572;SDS011;31762;45.420;10.072;2023-11-21T16:20:05;33.20;;;30.02;;
44572;SDS011;31762;45.420;10.072;2023-11-21T16:25:07;32.88;;;29.80;;
44572;SDS011;31762;45.420;10.072;2023-11-21T16:30:10;33.25;;;30.20;;
44572;SDS011;31762;45.420;10.072;2023-11-21T16:35:13;34.33;;;30.77;;
44572;SDS011;31762;45.420;10.072;2023-11-21T16:40:15;32.75;;;29.85;;
44572;SDS011;31762;45.420;10.072;2023-11-21T16:45:17;32.85;;;29.95;;
44572;SDS011;31762;45.420;10.072;2023-11-21T16:50:19;34.47;;;31.17;;
44572;SDS011;31762;45.420;10.072;2023-11-21T16:55:22;35.20;;;31.90;;
44572;SDS011;31762;45.420;10.072;2023-11-21T17:00:24;36.08;;;32.67;;
44572;SDS011;31762;45.420;10.072;2023-11-21T17:05:26;36.60;;;33.05;;
44572;SDS011;31762;45.420;10.072;2023-11-21T17:10:28;35.85;;;32.67;;
44572;SDS011;31762;45.420;10.072;2023-11-21T17:15:31;36.83;;;33.40;;
44572;SDS011;31762;45.420;10.072;2023-11-21T17:20:33;38.63;;;34.85;;
44572;SDS011;31762;45.420;10.072;2023-11-21T17:25:35;38.92;;;35.08;;
44572;SDS011;31762;45.420;10.072;2023-11-21T17:30:38;39.70;;;35.92;;
44572;SDS011;31762;45.420;10.072;2023-11-21T17:35:40;41.22;;;37.40;;
44572;SDS011;31762;45.420;10.072;2023-11-21T17:40:43;40.60;;;36.38;;
44572;SDS011;31762;45.420;10.072;2023-11-21T17:45:45;37.10;;;33.80;;
44572;SDS011;31762;45.420;10.072;2023-11-21T17:50:48;38.30;;;34.85;;
44572;SDS011;31762;45.420;10.072;2023-11-21T17:55:50;37.15;;;33.80;;
44572;SDS011;31762;45.420;10.072;2023-11-21T18:00:52;38.25;;;34.38;;
44572;SDS011;31762;45.420;10.072;2023-11-21T18:05:55;35.60;;;32.10;;
44572;SDS011;31762;45.420;10.072;2023-11-21T18:10:57;37.80;;;34.08;;
44572;SDS011;31762;45.420;10.072;2023-11-21T18:15:59;34.58;;;31.33;;
44572;SDS011;31762;45.420;10.072;2023-11-21T18:21:02;34.45;;;30.98;;
44572;SDS011;31762;45.420;10.072;2023-11-21T18:26:04;35.33;;;32.03;;
44572;SDS011;31762;45.420;10.072;2023-11-21T18:31:07;34.70;;;31.52;;
44572;SDS011;31762;45.420;10.072;2023-11-21T18:36:11;33.08;;;29.90;;
44572;SDS011;31762;45.420;10.072;2023-11-21T18:41:20;33.92;;;30.60;;
44572;SDS011;31762;45.420;10.072;2023-11-21T18:46:22;34.45;;;31.08;;
44572;SDS011;31762;45.420;10.072;2023-11-21T18:51:24;33.92;;;30.48;;
44572;SDS011;31762;45.420;10.072;2023-11-21T18:56:26;32.55;;;29.45;;
44572;SDS011;31762;45.420;10.072;2023-11-21T19:01:29;33.10;;;29.95;;
44572;SDS011;31762;45.420;10.072;2023-11-21T19:06:32;31.70;;;28.25;;
44572;SDS011;31762;45.420;10.072;2023-11-21T19:11:34;31.13;;;28.27;;
44572;SDS011;31762;45.420;10.072;2023-11-21T19:16:36;32.05;;;29.00;;
44572;SDS011;31762;45.420;10.072;2023-11-21T19:21:39;30.00;;;26.85;;
44572;SDS011;31762;45.420;10.072;2023-11-21T19:26:41;29.45;;;26.38;;
44572;SDS011;31762;45.420;10.072;2023-11-21T19:31:43;29.02;;;25.92;;
44572;SDS011;31762;45.420;10.072;2023-11-21T19:36:47;28.35;;;25.60;;
44572;SDS011;31762;45.420;10.072;2023-11-21T19:41:49;29.02;;;26.25;;
44572;SDS011;31762;45.420;10.072;2023-11-21T19:46:52;28.83;;;26.05;;
44572;SDS011;31762;45.420;10.072;2023-11-21T19:51:54;27.98;;;25.35;;
44572;SDS011;31762;45.420;10.072;2023-11-21T19:56:56;27.33;;;24.83;;
44572;SDS011;31762;45.420;10.072;2023-11-21T20:01:58;28.38;;;24.85;;
44572;SDS011;31762;45.420;10.072;2023-11-21T20:07:01;32.33;;;29.42;;
44572;SDS011;31762;45.420;10.072;2023-11-21T20:12:03;29.13;;;26.15;;
44572;SDS011;31762;45.420;10.072;2023-11-21T20:17:05;27.35;;;24.92;;
44572;SDS011;31762;45.420;10.072;2023-11-21T20:22:08;28.63;;;25.58;;
44572;SDS011;31762;45.420;10.072;2023-11-21T20:27:10;28.45;;;25.85;;
44572;SDS011;31762;45.420;10.072;2023-11-21T20:32:12;27.67;;;25.13;;
44572;SDS011;31762;45.420;10.072;2023-11-21T20:37:15;26.65;;;24.17;;
44572;SDS011;31762;45.420;10.072;2023-11-21T20:42:17;27.17;;;24.42;;
44572;SDS011;31762;45.420;10.072;2023-11-21T20:47:19;27.83;;;25.33;;
44572;SDS011;31762;45.420;10.072;2023-11-21T20:52:22;28.00;;;25.42;;
44572;SDS011;31762;45.420;10.072;2023-11-21T20:57:24;27.13;;;24.42;;
44572;SDS011;31762;45.420;10.072;2023-11-21T21:02:26;26.73;;;24.30;;
44572;SDS011;31762;45.420;10.072;2023-11-21T21:07:29;26.08;;;23.67;;
44572;SDS011;31762;45.420;10.072;2023-11-21T21:12:31;27.88;;;25.17;;
44572;SDS011;31762;45.420;10.072;2023-11-21T21:17:33;24.42;;;22.30;;
44572;SDS011;31762;45.420;10.072;2023-11-21T21:22:38;24.45;;;22.02;;
44572;SDS011;31762;45.420;10.072;2023-11-21T21:27:41;25.48;;;23.20;;
44572;SDS011;31762;45.420;10.072;2023-11-21T21:32:43;24.00;;;21.85;;
44572;SDS011;31762;45.420;10.072;2023-11-21T21:37:45;25.27;;;22.73;;
44572;SDS011;31762;45.420;10.072;2023-11-21T21:42:47;26.02;;;23.60;;
44572;SDS011;31762;45.420;10.072;2023-11-21T21:47:50;23.70;;;21.52;;
44572;SDS011;31762;45.420;10.072;2023-11-21T21:52:53;23.95;;;21.85;;
44572;SDS011;31762;45.420;10.072;2023-11-21T21:57:59;23.58;;;21.33;;
44572;SDS011;31762;45.420;10.072;2023-11-21T22:03:02;22.20;;;20.30;;
44572;SDS011;31762;45.420;10.072;2023-11-21T22:08:04;23.05;;;20.90;;
44572;SDS011;31762;45.420;10.072;2023-11-21T22:13:06;23.08;;;21.00;;
44572;SDS011;31762;45.420;10.072;2023-11-21T22:18:09;22.17;;;20.10;;
44572;SDS011;31762;45.420;10.072;2023-11-21T22:23:11;21.92;;;20.00;;
44572;SDS011;31762;45.420;10.072;2023-11-21T22:28:13;22.70;;;20.60;;
44572;SDS011;31762;45.420;10.072;2023-11-21T22:33:15;23.75;;;21.55;;
44572;SDS011;31762;45.420;10.072;2023-11-21T22:38:17;23.60;;;21.35;;
44572;SDS011;31762;45.420;10.072;2023-11-21T22:43:20;21.73;;;19.73;;
44572;SDS011;31762;45.420;10.072;2023-11-21T22:48:22;21.40;;;19.58;;
44572;SDS011;31762;45.420;10.072;2023-11-21T22:53:25;21.73;;;19.73;;
44572;SDS011;31762;45.420;10.072;2023-11-21T22:58:27;21.27;;;19.42;;
44572;SDS011;31762;45.420;10.072;2023-11-21T23:03:29;21.42;;;19.38;;
44572;SDS011;31762;45.420;10.072;2023-11-21T23:08:31;20.33;;;18.27;;
44572;SDS011;31762;45.420;10.072;2023-11-21T23:13:34;21.15;;;19.25;;
44572;SDS011;31762;45.420;10.072;2023-11-21T23:18:36;20.70;;;18.70;;
44572;SDS011;31762;45.420;10.072;2023-11-21T23:23:38;19.52;;;17.63;;
44572;SDS011;31762;45.420;10.072;2023-11-21T23:28:40;19.90;;;18.10;;
44572;SDS011;31762;45.420;10.072;2023-11-21T23:33:43;19.98;;;18.10;;
44572;SDS011;31762;45.420;10.072;2023-11-21T23:38:45;18.38;;;16.73;;
44572;SDS011;31762;45.420;10.072;2023-11-21T23:43:48;19.17;;;17.48;;
44572;SDS011;31762;45.420;10.072;2023-11-21T23:48:50;19.55;;;17.85;;
44572;SDS011;31762;45.420;10.072;2023-11-21T23:53:52;19.20;;;17.50;;
44572;SDS011;31762;45.420;10.072;2023-11-21T23:58:55;18.35;;;16.75;;
